sensor_id;sensor_type;location;lat;lon;timestamp;P1;durP1;ratioP1;P2;durP2;ratioP2
52642;SDS011;38531;53.296;6.614;2023-04-15T00:01:24;2.22;;;1.30;;
52642;SDS011;38531;53.296;6.614;2023-04-15T00:03:51;2.78;;;1.50;;
52642;SDS011;38531;53.296;6.614;2023-04-15T00:06:18;3.63;;;1.42;;
52642;SDS011;38531;53.296;6.614;2023-04-15T00:08:48;5.13;;;1.42;;
52642;SDS011;38531;53.296;6.614;2023-04-15T00:11:17;4.57;;;1.33;;
52642;SDS011;38531;53.296;6.614;2023-04-15T00:13:44;3.38;;;1.42;;
52642;SDS011;38531;53.296;6.614;2023-04-15T00:16:10;3.95;;;1.52;;
52642;SDS011;38531;53.296;6.614;2023-04-15T00:18:36;3.72;;;1.50;;
52642;SDS011;38531;53.296;6.614;2023-04-15T00:21:05;4.28;;;1.30;;
52642;SDS011;38531;53.296;6.614;2023-04-15T00:23:31;2.05;;;1.27;;
52642;SDS011;38531;53.296;6.614;2023-04-15T00:25:57;3.05;;;1.48;;
52642;SDS011;38531;53.296;6.614;2023-04-15T00:28:23;2.92;;;1.30;;
52642;SDS011;38531;53.296;6.614;2023-04-15T00:30:49;5.50;;;1.42;;
52642;SDS011;38531;53.296;6.614;2023-04-15T00:33:15;4.43;;;1.88;;
52642;SDS011;38531;53.296;6.614;2023-04-15T00:35:41;6.93;;;2.17;;
52642;SDS011;38531;53.296;6.614;2023-04-15T00:38:07;3.72;;;1.80;;
52642;SDS011;38531;53.296;6.614;2023-04-15T00:40:33;6.35;;;1.83;;
52642;SDS011;38531;53.296;6.614;2023-04-15T00:42:59;4.45;;;2.10;;
52642;SDS011;38531;53.296;6.614;2023-04-15T00:45:25;3.83;;;1.67;;
52642;SDS011;38531;53.296;6.614;2023-04-15T00:47:52;3.42;;;1.55;;
52642;SDS011;38531;53.296;6.614;2023-04-15T00:50:18;4.80;;;2.00;;
52642;SDS011;38531;53.296;6.614;2023-04-15T00:52:44;3.17;;;1.33;;
52642;SDS011;38531;53.296;6.614;2023-04-15T00:55:10;3.65;;;2.22;;
52642;SDS011;38531;53.296;6.614;2023-04-15T00:57:38;3.10;;;1.67;;
52642;SDS011;38531;53.296;6.614;2023-04-15T01:00:05;4.63;;;2.50;;
52642;SDS011;38531;53.296;6.614;2023-04-15T01:02:35;4.15;;;1.83;;
52642;SDS011;38531;53.296;6.614;2023-04-15T01:05:05;2.80;;;1.45;;
52642;SDS011;38531;53.296;6.614;2023-04-15T01:07:31;2.53;;;1.30;;
52642;SDS011;38531;53.296;6.614;2023-04-15T01:10:02;2.85;;;1.33;;
52642;SDS011;38531;53.296;6.614;2023-04-15T01:12:31;2.78;;;1.38;;
52642;SDS011;38531;53.296;6.614;2023-04-15T01:15:00;2.60;;;1.60;;
52642;SDS011;38531;53.296;6.614;2023-04-15T01:17:26;3.42;;;1.88;;
52642;SDS011;38531;53.296;6.614;2023-04-15T01:19:52;3.08;;;1.52;;
52642;SDS011;38531;53.296;6.614;2023-04-15T01:22:22;4.63;;;2.08;;
52642;SDS011;38531;53.296;6.614;2023-04-15T01:24:54;3.97;;;1.88;;
52642;SDS011;38531;53.296;6.614;2023-04-15T01:27:26;4.78;;;1.83;;
52642;SDS011;38531;53.296;6.614;2023-04-15T01:29:52;5.72;;;2.40;;
52642;SDS011;38531;53.296;6.614;2023-04-15T01:32:20;3.72;;;2.00;;
52642;SDS011;38531;53.296;6.614;2023-04-15T01:34:46;3.70;;;2.00;;
52642;SDS011;38531;53.296;6.614;2023-04-15T01:37:12;6.15;;;3.03;;
52642;SDS011;38531;53.296;6.614;2023-04-15T01:39:38;4.90;;;2.50;;
52642;SDS011;38531;53.296;6.614;2023-04-15T01:42:04;4.47;;;2.38;;
52642;SDS011;38531;53.296;6.614;2023-04-15T01:44:30;4.25;;;1.98;;
52642;SDS011;38531;53.296;6.614;2023-04-15T01:46:56;4.55;;;2.33;;
52642;SDS011;38531;53.296;6.614;2023-04-15T01:49:24;6.70;;;4.18;;
52642;SDS011;38531;53.296;6.614;2023-04-15T01:51:52;7.05;;;2.80;;
52642;SDS011;38531;53.296;6.614;2023-04-15T01:54:18;5.43;;;3.00;;
52642;SDS011;38531;53.296;6.614;2023-04-15T01:56:46;4.32;;;2.30;;
52642;SDS011;38531;53.296;6.614;2023-04-15T01:59:12;5.40;;;2.42;;
52642;SDS011;38531;53.296;6.614;2023-04-15T02:01:40;3.65;;;1.95;;
52642;SDS011;38531;53.296;6.614;2023-04-15T02:04:10;5.40;;;2.58;;
52642;SDS011;38531;53.296;6.614;2023-04-15T02:06:43;4.45;;;2.20;;
52642;SDS011;38531;53.296;6.614;2023-04-15T02:09:14;4.28;;;2.05;;
52642;SDS011;38531;53.296;6.614;2023-04-15T02:11:39;6.15;;;1.98;;
52642;SDS011;38531;53.296;6.614;2023-04-15T02:14:05;4.35;;;2.42;;
52642;SDS011;38531;53.296;6.614;2023-04-15T02:16:31;4.90;;;2.63;;
52642;SDS011;38531;53.296;6.614;2023-04-15T02:19:01;4.70;;;2.65;;
52642;SDS011;38531;53.296;6.614;2023-04-15T02:21:30;7.15;;;3.70;;
52642;SDS011;38531;53.296;6.614;2023-04-15T02:23:56;7.47;;;3.95;;
52642;SDS011;38531;53.296;6.614;2023-04-15T02:26:22;6.30;;;3.15;;
52642;SDS011;38531;53.296;6.614;2023-04-15T02:28:51;6.03;;;3.35;;
52642;SDS011;38531;53.296;6.614;2023-04-15T02:31:16;5.25;;;3.08;;
52642;SDS011;38531;53.296;6.614;2023-04-15T02:33:45;5.70;;;3.00;;
52642;SDS011;38531;53.296;6.614;2023-04-15T02:36:14;5.00;;;2.72;;
52642;SDS011;38531;53.296;6.614;2023-04-15T02:38:40;7.05;;;2.90;;
52642;SDS011;38531;53.296;6.614;2023-04-15T02:41:07;5.57;;;3.15;;
52642;SDS011;38531;53.296;6.614;2023-04-15T02:43:36;4.57;;;2.90;;
52642;SDS011;38531;53.296;6.614;2023-04-15T02:46:04;5.28;;;2.65;;
52642;SDS011;38531;53.296;6.614;2023-04-15T02:48:30;5.20;;;2.70;;
52642;SDS011;38531;53.296;6.614;2023-04-15T02:51:12;5.90;;;2.88;;
52642;SDS011;38531;53.296;6.614;2023-04-15T02:53:44;5.50;;;2.50;;
52642;SDS011;38531;53.296;6.614;2023-04-15T02:56:12;4.13;;;2.47;;
52642;SDS011;38531;53.296;6.614;2023-04-15T02:58:39;6.32;;;3.30;;
52642;SDS011;38531;53.296;6.614;2023-04-15T03:01:05;6.50;;;3.28;;
52642;SDS011;38531;53.296;6.614;2023-04-15T03:03:34;5.20;;;2.83;;
52642;SDS011;38531;53.296;6.614;2023-04-15T03:06:00;5.20;;;3.17;;
52642;SDS011;38531;53.296;6.614;2023-04-15T03:08:26;6.28;;;2.75;;
52642;SDS011;38531;53.296;6.614;2023-04-15T03:10:51;6.13;;;2.95;;
52642;SDS011;38531;53.296;6.614;2023-04-15T03:13:18;5.10;;;2.50;;
52642;SDS011;38531;53.296;6.614;2023-04-15T03:15:45;4.60;;;2.45;;
52642;SDS011;38531;53.296;6.614;2023-04-15T03:18:14;5.50;;;2.83;;
52642;SDS011;38531;53.296;6.614;2023-04-15T03:20:40;5.28;;;2.65;;
52642;SDS011;38531;53.296;6.614;2023-04-15T03:23:05;4.68;;;2.88;;
52642;SDS011;38531;53.296;6.614;2023-04-15T03:25:34;6.72;;;3.47;;
52642;SDS011;38531;53.296;6.614;2023-04-15T03:28:01;6.38;;;2.83;;
52642;SDS011;38531;53.296;6.614;2023-04-15T03:30:27;6.15;;;3.10;;
52642;SDS011;38531;53.296;6.614;2023-04-15T03:32:53;5.13;;;2.70;;
52642;SDS011;38531;53.296;6.614;2023-04-15T03:35:19;4.88;;;2.67;;
52642;SDS011;38531;53.296;6.614;2023-04-15T03:37:45;5.90;;;3.22;;
52642;SDS011;38531;53.296;6.614;2023-04-15T03:40:13;7.82;;;3.88;;
52642;SDS011;38531;53.296;6.614;2023-04-15T03:42:39;7.45;;;3.17;;
52642;SDS011;38531;53.296;6.614;2023-04-15T03:45:05;6.28;;;2.40;;
52642;SDS011;38531;53.296;6.614;2023-04-15T03:47:31;5.97;;;2.60;;
52642;SDS011;38531;53.296;6.614;2023-04-15T03:49:57;5.05;;;2.50;;
52642;SDS011;38531;53.296;6.614;2023-04-15T03:52:23;6.97;;;3.45;;
52642;SDS011;38531;53.296;6.614;2023-04-15T03:54:49;5.97;;;3.08;;
52642;SDS011;38531;53.296;6.614;2023-04-15T03:57:15;7.05;;;3.10;;
52642;SDS011;38531;53.296;6.614;2023-04-15T03:59:41;6.13;;;3.45;;
52642;SDS011;38531;53.296;6.614;2023-04-15T04:02:07;5.30;;;2.50;;
52642;SDS011;38531;53.296;6.614;2023-04-15T04:04:32;7.85;;;3.83;;
52642;SDS011;38531;53.296;6.614;2023-04-15T04:06:58;6.07;;;3.33;;
52642;SDS011;38531;53.296;6.614;2023-04-15T04:09:24;6.10;;;3.05;;
52642;SDS011;38531;53.296;6.614;2023-04-15T04:11:50;10.15;;;3.70;;
52642;SDS011;38531;53.296;6.614;2023-04-15T04:14:15;8.23;;;3.92;;
52642;SDS011;38531;53.296;6.614;2023-04-15T04:16:41;10.10;;;5.22;;
52642;SDS011;38531;53.296;6.614;2023-04-15T04:19:07;9.52;;;5.03;;
52642;SDS011;38531;53.296;6.614;2023-04-15T04:21:35;8.55;;;4.07;;
52642;SDS011;38531;53.296;6.614;2023-04-15T04:24:01;9.30;;;5.10;;
52642;SDS011;38531;53.296;6.614;2023-04-15T04:26:27;6.07;;;3.55;;
52642;SDS011;38531;53.296;6.614;2023-04-15T04:28:53;6.28;;;3.15;;
52642;SDS011;38531;53.296;6.614;2023-04-15T04:31:18;4.60;;;2.60;;
52642;SDS011;38531;53.296;6.614;2023-04-15T04:33:46;6.63;;;2.83;;
52642;SDS011;38531;53.296;6.614;2023-04-15T04:36:12;8.00;;;3.30;;
52642;SDS011;38531;53.296;6.614;2023-04-15T04:38:38;6.18;;;2.67;;
52642;SDS011;38531;53.296;6.614;2023-04-15T04:41:04;5.70;;;2.88;;
52642;SDS011;38531;53.296;6.614;2023-04-15T04:43:30;6.43;;;3.17;;
52642;SDS011;38531;53.296;6.614;2023-04-15T04:45:56;5.35;;;2.67;;
52642;SDS011;38531;53.296;6.614;2023-04-15T04:48:21;5.03;;;2.40;;
52642;SDS011;38531;53.296;6.614;2023-04-15T04:50:47;5.38;;;2.90;;
52642;SDS011;38531;53.296;6.614;2023-04-15T04:53:13;5.05;;;2.55;;
52642;SDS011;38531;53.296;6.614;2023-04-15T04:55:40;5.45;;;2.80;;
52642;SDS011;38531;53.296;6.614;2023-04-15T04:58:06;5.72;;;2.92;;
52642;SDS011;38531;53.296;6.614;2023-04-15T05:00:32;7.53;;;4.30;;
52642;SDS011;38531;53.296;6.614;2023-04-15T05:02:58;8.88;;;4.90;;
52642;SDS011;38531;53.296;6.614;2023-04-15T05:05:24;6.93;;;4.43;;
52642;SDS011;38531;53.296;6.614;2023-04-15T05:07:50;11.27;;;5.82;;
52642;SDS011;38531;53.296;6.614;2023-04-15T05:10:15;8.32;;;4.65;;
52642;SDS011;38531;53.296;6.614;2023-04-15T05:12:42;10.25;;;4.95;;
52642;SDS011;38531;53.296;6.614;2023-04-15T05:15:08;9.25;;;5.25;;
52642;SDS011;38531;53.296;6.614;2023-04-15T05:17:34;8.35;;;4.68;;
52642;SDS011;38531;53.296;6.614;2023-04-15T05:20:01;8.85;;;4.85;;
52642;SDS011;38531;53.296;6.614;2023-04-15T05:22:27;10.63;;;5.10;;
52642;SDS011;38531;53.296;6.614;2023-04-15T05:24:53;12.27;;;6.22;;
52642;SDS011;38531;53.296;6.614;2023-04-15T05:27:21;12.30;;;5.03;;
52642;SDS011;38531;53.296;6.614;2023-04-15T05:29:48;9.38;;;4.57;;
52642;SDS011;38531;53.296;6.614;2023-04-15T05:32:13;10.15;;;5.30;;
52642;SDS011;38531;53.296;6.614;2023-04-15T05:34:39;10.63;;;4.28;;
52642;SDS011;38531;53.296;6.614;2023-04-15T05:37:07;9.68;;;4.55;;
52642;SDS011;38531;53.296;6.614;2023-04-15T05:39:33;12.23;;;5.95;;
52642;SDS011;38531;53.296;6.614;2023-04-15T05:41:59;10.77;;;5.18;;
52642;SDS011;38531;53.296;6.614;2023-04-15T05:44:27;15.50;;;6.43;;
52642;SDS011;38531;53.296;6.614;2023-04-15T05:46:53;12.65;;;7.03;;
52642;SDS011;38531;53.296;6.614;2023-04-15T05:49:22;11.32;;;5.47;;
52642;SDS011;38531;53.296;6.614;2023-04-15T05:51:48;10.88;;;5.18;;
52642;SDS011;38531;53.296;6.614;2023-04-15T05:54:16;11.68;;;5.53;;
52642;SDS011;38531;53.296;6.614;2023-04-15T05:56:42;12.15;;;5.32;;
52642;SDS011;38531;53.296;6.614;2023-04-15T05:59:08;11.88;;;5.72;;
52642;SDS011;38531;53.296;6.614;2023-04-15T06:01:34;10.25;;;5.32;;
52642;SDS011;38531;53.296;6.614;2023-04-15T06:04:02;11.95;;;5.65;;
52642;SDS011;38531;53.296;6.614;2023-04-15T06:06:27;10.55;;;5.00;;
52642;SDS011;38531;53.296;6.614;2023-04-15T06:08:53;9.48;;;4.90;;
52642;SDS011;38531;53.296;6.614;2023-04-15T06:11:20;7.40;;;3.35;;
52642;SDS011;38531;53.296;6.614;2023-04-15T06:13:46;10.25;;;4.35;;
52642;SDS011;38531;53.296;6.614;2023-04-15T06:16:11;9.68;;;4.85;;
52642;SDS011;38531;53.296;6.614;2023-04-15T06:18:40;8.52;;;4.40;;
52642;SDS011;38531;53.296;6.614;2023-04-15T06:21:05;6.10;;;2.95;;
52642;SDS011;38531;53.296;6.614;2023-04-15T06:23:34;7.50;;;3.72;;
52642;SDS011;38531;53.296;6.614;2023-04-15T06:26:01;6.28;;;3.20;;
52642;SDS011;38531;53.296;6.614;2023-04-15T06:28:27;6.10;;;3.65;;
52642;SDS011;38531;53.296;6.614;2023-04-15T06:30:53;7.20;;;3.17;;
52642;SDS011;38531;53.296;6.614;2023-04-15T06:33:19;10.77;;;5.07;;
52642;SDS011;38531;53.296;6.614;2023-04-15T06:35:45;6.90;;;3.53;;
52642;SDS011;38531;53.296;6.614;2023-04-15T06:38:11;7.40;;;4.00;;
52642;SDS011;38531;53.296;6.614;2023-04-15T06:40:38;8.77;;;3.40;;
52642;SDS011;38531;53.296;6.614;2023-04-15T06:43:04;10.50;;;4.50;;
52642;SDS011;38531;53.296;6.614;2023-04-15T06:45:33;11.05;;;4.53;;
52642;SDS011;38531;53.296;6.614;2023-04-15T06:47:59;8.55;;;3.90;;
52642;SDS011;38531;53.296;6.614;2023-04-15T06:50:25;9.90;;;5.40;;
52642;SDS011;38531;53.296;6.614;2023-04-15T06:52:52;10.82;;;5.50;;
52642;SDS011;38531;53.296;6.614;2023-04-15T06:55:18;11.10;;;4.80;;
52642;SDS011;38531;53.296;6.614;2023-04-15T06:57:44;11.77;;;5.80;;
52642;SDS011;38531;53.296;6.614;2023-04-15T07:00:10;10.30;;;4.72;;
52642;SDS011;38531;53.296;6.614;2023-04-15T07:02:36;9.80;;;4.55;;
52642;SDS011;38531;53.296;6.614;2023-04-15T07:05:02;10.20;;;4.18;;
52642;SDS011;38531;53.296;6.614;2023-04-15T07:07:31;11.07;;;4.68;;
52642;SDS011;38531;53.296;6.614;2023-04-15T07:09:57;8.13;;;4.55;;
52642;SDS011;38531;53.296;6.614;2023-04-15T07:12:23;9.15;;;4.18;;
52642;SDS011;38531;53.296;6.614;2023-04-15T07:14:49;7.57;;;3.50;;
52642;SDS011;38531;53.296;6.614;2023-04-15T07:17:14;9.68;;;4.15;;
52642;SDS011;38531;53.296;6.614;2023-04-15T07:19:40;8.77;;;4.00;;
52642;SDS011;38531;53.296;6.614;2023-04-15T07:22:06;7.65;;;4.38;;
52642;SDS011;38531;53.296;6.614;2023-04-15T07:24:32;7.35;;;3.58;;
52642;SDS011;38531;53.296;6.614;2023-04-15T07:26:58;6.55;;;3.67;;
52642;SDS011;38531;53.296;6.614;2023-04-15T07:29:24;5.63;;;3.17;;
52642;SDS011;38531;53.296;6.614;2023-04-15T07:31:51;8.13;;;3.72;;
52642;SDS011;38531;53.296;6.614;2023-04-15T07:34:17;8.55;;;4.22;;
52642;SDS011;38531;53.296;6.614;2023-04-15T07:36:44;10.23;;;3.80;;
52642;SDS011;38531;53.296;6.614;2023-04-15T07:39:14;8.25;;;3.47;;
52642;SDS011;38531;53.296;6.614;2023-04-15T07:41:40;7.20;;;3.33;;
52642;SDS011;38531;53.296;6.614;2023-04-15T07:44:06;5.38;;;3.22;;
52642;SDS011;38531;53.296;6.614;2023-04-15T07:46:32;9.27;;;3.80;;
52642;SDS011;38531;53.296;6.614;2023-04-15T07:48:58;7.63;;;3.80;;
52642;SDS011;38531;53.296;6.614;2023-04-15T07:51:23;6.72;;;3.88;;
52642;SDS011;38531;53.296;6.614;2023-04-15T07:53:49;8.10;;;3.85;;
52642;SDS011;38531;53.296;6.614;2023-04-15T07:56:15;7.15;;;3.40;;
52642;SDS011;38531;53.296;6.614;2023-04-15T07:58:41;5.90;;;3.45;;
52642;SDS011;38531;53.296;6.614;2023-04-15T08:01:07;7.03;;;3.28;;
52642;SDS011;38531;53.296;6.614;2023-04-15T08:03:33;7.60;;;3.10;;
52642;SDS011;38531;53.296;6.614;2023-04-15T08:05:59;7.45;;;3.45;;
52642;SDS011;38531;53.296;6.614;2023-04-15T08:08:25;6.53;;;2.45;;
52642;SDS011;38531;53.296;6.614;2023-04-15T08:10:51;6.97;;;2.60;;
52642;SDS011;38531;53.296;6.614;2023-04-15T08:13:17;5.68;;;3.05;;
52642;SDS011;38531;53.296;6.614;2023-04-15T08:15:43;8.25;;;2.92;;
52642;SDS011;38531;53.296;6.614;2023-04-15T08:18:09;6.80;;;2.70;;
52642;SDS011;38531;53.296;6.614;2023-04-15T08:20:35;5.75;;;2.50;;
52642;SDS011;38531;53.296;6.614;2023-04-15T08:23:01;6.45;;;2.60;;
52642;SDS011;38531;53.296;6.614;2023-04-15T08:25:28;4.50;;;2.20;;
52642;SDS011;38531;53.296;6.614;2023-04-15T08:27:54;5.18;;;1.98;;
52642;SDS011;38531;53.296;6.614;2023-04-15T08:30:23;3.70;;;1.65;;
52642;SDS011;38531;53.296;6.614;2023-04-15T08:32:49;6.45;;;1.77;;
52642;SDS011;38531;53.296;6.614;2023-04-15T08:35:15;2.97;;;1.88;;
52642;SDS011;38531;53.296;6.614;2023-04-15T08:37:41;4.72;;;1.33;;
52642;SDS011;38531;53.296;6.614;2023-04-15T08:40:09;4.30;;;1.33;;
52642;SDS011;38531;53.296;6.614;2023-04-15T08:42:36;2.42;;;1.33;;
52642;SDS011;38531;53.296;6.614;2023-04-15T08:45:06;4.20;;;1.35;;
52642;SDS011;38531;53.296;6.614;2023-04-15T08:47:34;4.22;;;1.25;;
52642;SDS011;38531;53.296;6.614;2023-04-15T08:50:03;2.17;;;1.05;;
52642;SDS011;38531;53.296;6.614;2023-04-15T08:52:30;3.50;;;0.98;;
52642;SDS011;38531;53.296;6.614;2023-04-15T08:54:59;3.95;;;1.15;;
52642;SDS011;38531;53.296;6.614;2023-04-15T08:57:27;1.48;;;0.80;;
52642;SDS011;38531;53.296;6.614;2023-04-15T08:59:56;2.80;;;0.93;;
52642;SDS011;38531;53.296;6.614;2023-04-15T09:02:25;3.05;;;1.58;;
52642;SDS011;38531;53.296;6.614;2023-04-15T09:04:51;1.88;;;0.90;;
52642;SDS011;38531;53.296;6.614;2023-04-15T09:07:17;3.08;;;0.88;;
52642;SDS011;38531;53.296;6.614;2023-04-15T09:09:43;3.75;;;0.82;;
52642;SDS011;38531;53.296;6.614;2023-04-15T09:12:10;1.60;;;0.75;;
52642;SDS011;38531;53.296;6.614;2023-04-15T09:14:36;1.40;;;0.65;;
52642;SDS011;38531;53.296;6.614;2023-04-15T09:17:04;4.38;;;0.90;;
52642;SDS011;38531;53.296;6.614;2023-04-15T09:19:34;2.50;;;0.90;;
52642;SDS011;38531;53.296;6.614;2023-04-15T09:21:59;1.40;;;0.63;;
52642;SDS011;38531;53.296;6.614;2023-04-15T09:24:33;4.78;;;0.75;;
52642;SDS011;38531;53.296;6.614;2023-04-15T09:27:01;3.08;;;0.70;;
52642;SDS011;38531;53.296;6.614;2023-04-15T09:29:27;2.55;;;0.75;;
52642;SDS011;38531;53.296;6.614;2023-04-15T09:31:53;1.15;;;0.60;;
52642;SDS011;38531;53.296;6.614;2023-04-15T09:34:19;1.27;;;0.50;;
52642;SDS011;38531;53.296;6.614;2023-04-15T09:36:53;4.28;;;1.35;;
52642;SDS011;38531;53.296;6.614;2023-04-15T09:39:20;1.25;;;0.60;;
52642;SDS011;38531;53.296;6.614;2023-04-15T09:41:45;4.13;;;0.80;;
52642;SDS011;38531;53.296;6.614;2023-04-15T09:44:24;2.80;;;0.80;;
52642;SDS011;38531;53.296;6.614;2023-04-15T09:46:50;3.40;;;0.70;;
52642;SDS011;38531;53.296;6.614;2023-04-15T09:49:16;3.85;;;0.77;;
52642;SDS011;38531;53.296;6.614;2023-04-15T09:51:42;3.80;;;0.65;;
52642;SDS011;38531;53.296;6.614;2023-04-15T09:54:09;1.92;;;0.60;;
52642;SDS011;38531;53.296;6.614;2023-04-15T09:56:38;1.70;;;0.75;;
52642;SDS011;38531;53.296;6.614;2023-04-15T09:59:07;1.00;;;0.52;;
52642;SDS011;38531;53.296;6.614;2023-04-15T10:01:36;1.58;;;0.45;;
52642;SDS011;38531;53.296;6.614;2023-04-15T10:04:05;1.80;;;0.98;;
52642;SDS011;38531;53.296;6.614;2023-04-15T10:06:31;4.13;;;0.63;;
52642;SDS011;38531;53.296;6.614;2023-04-15T10:08:58;2.22;;;0.70;;
52642;SDS011;38531;53.296;6.614;2023-04-15T10:11:29;1.38;;;0.77;;
52642;SDS011;38531;53.296;6.614;2023-04-15T10:13:56;4.57;;;0.82;;
52642;SDS011;38531;53.296;6.614;2023-04-15T10:16:23;4.55;;;1.15;;
52642;SDS011;38531;53.296;6.614;2023-04-15T10:18:55;4.63;;;1.00;;
52642;SDS011;38531;53.296;6.614;2023-04-15T10:21:22;4.55;;;0.93;;
52642;SDS011;38531;53.296;6.614;2023-04-15T10:23:49;2.72;;;0.80;;
52642;SDS011;38531;53.296;6.614;2023-04-15T10:26:15;2.75;;;0.88;;
52642;SDS011;38531;53.296;6.614;2023-04-15T10:28:42;2.70;;;0.70;;
52642;SDS011;38531;53.296;6.614;2023-04-15T10:31:10;2.95;;;0.90;;
52642;SDS011;38531;53.296;6.614;2023-04-15T10:33:37;4.63;;;1.02;;
52642;SDS011;38531;53.296;6.614;2023-04-15T10:36:04;3.38;;;1.10;;
52642;SDS011;38531;53.296;6.614;2023-04-15T10:38:32;3.65;;;1.00;;
52642;SDS011;38531;53.296;6.614;2023-04-15T10:43:38;2.28;;;1.02;;
52642;SDS011;38531;53.296;6.614;2023-04-15T10:46:09;2.97;;;0.90;;
52642;SDS011;38531;53.296;6.614;2023-04-15T10:48:35;1.75;;;0.80;;
52642;SDS011;38531;53.296;6.614;2023-04-15T10:51:01;2.75;;;1.02;;
52642;SDS011;38531;53.296;6.614;2023-04-15T10:53:29;4.35;;;1.17;;
52642;SDS011;38531;53.296;6.614;2023-04-15T10:55:58;4.32;;;0.80;;
52642;SDS011;38531;53.296;6.614;2023-04-15T10:58:24;3.65;;;1.10;;
52642;SDS011;38531;53.296;6.614;2023-04-15T11:00:50;6.70;;;1.23;;
52642;SDS011;38531;53.296;6.614;2023-04-15T11:03:33;4.13;;;0.80;;
52642;SDS011;38531;53.296;6.614;2023-04-15T11:06:03;6.57;;;1.00;;
52642;SDS011;38531;53.296;6.614;2023-04-15T11:08:51;3.92;;;0.77;;
52642;SDS011;38531;53.296;6.614;2023-04-15T11:14:43;1.83;;;0.50;;
52642;SDS011;38531;53.296;6.614;2023-04-15T11:17:11;6.03;;;0.77;;
52642;SDS011;38531;53.296;6.614;2023-04-15T11:19:37;3.75;;;0.70;;
52642;SDS011;38531;53.296;6.614;2023-04-15T11:22:09;8.10;;;1.00;;
52642;SDS011;38531;53.296;6.614;2023-04-15T11:24:35;3.33;;;1.00;;
52642;SDS011;38531;53.296;6.614;2023-04-15T11:27:19;2.63;;;0.88;;
52642;SDS011;38531;53.296;6.614;2023-04-15T11:29:45;4.38;;;0.82;;
52642;SDS011;38531;53.296;6.614;2023-04-15T11:32:11;5.05;;;0.93;;
52642;SDS011;38531;53.296;6.614;2023-04-15T11:34:37;7.55;;;1.08;;
52642;SDS011;38531;53.296;6.614;2023-04-15T11:37:03;4.25;;;1.10;;
52642;SDS011;38531;53.296;6.614;2023-04-15T11:39:30;6.50;;;0.93;;
52642;SDS011;38531;53.296;6.614;2023-04-15T11:41:58;6.60;;;0.80;;
52642;SDS011;38531;53.296;6.614;2023-04-15T11:44:24;8.82;;;1.00;;
52642;SDS011;38531;53.296;6.614;2023-04-15T11:46:50;3.42;;;0.70;;
52642;SDS011;38531;53.296;6.614;2023-04-15T11:49:28;4.68;;;0.80;;
52642;SDS011;38531;53.296;6.614;2023-04-15T11:51:59;2.42;;;0.90;;
52642;SDS011;38531;53.296;6.614;2023-04-15T11:54:25;2.67;;;0.65;;
52642;SDS011;38531;53.296;6.614;2023-04-15T11:56:53;4.85;;;0.70;;
52642;SDS011;38531;53.296;6.614;2023-04-15T11:59:19;2.83;;;0.70;;
52642;SDS011;38531;53.296;6.614;2023-04-15T12:01:45;7.88;;;1.20;;
52642;SDS011;38531;53.296;6.614;2023-04-15T12:04:12;5.15;;;0.70;;
52642;SDS011;38531;53.296;6.614;2023-04-15T12:06:39;4.68;;;0.90;;
52642;SDS011;38531;53.296;6.614;2023-04-15T12:16:42;1.60;;;0.60;;
52642;SDS011;38531;53.296;6.614;2023-04-15T12:19:13;6.20;;;0.88;;
52642;SDS011;38531;53.296;6.614;2023-04-15T12:21:43;5.38;;;0.80;;
52642;SDS011;38531;53.296;6.614;2023-04-15T12:24:10;4.95;;;1.48;;
52642;SDS011;38531;53.296;6.614;2023-04-15T12:26:43;2.58;;;0.60;;
52642;SDS011;38531;53.296;6.614;2023-04-15T12:29:11;3.03;;;0.65;;
52642;SDS011;38531;53.296;6.614;2023-04-15T12:34:29;4.25;;;0.88;;
52642;SDS011;38531;53.296;6.614;2023-04-15T12:37:01;5.72;;;0.63;;
52642;SDS011;38531;53.296;6.614;2023-04-15T12:39:29;3.10;;;0.55;;
52642;SDS011;38531;53.296;6.614;2023-04-15T12:41:57;6.03;;;0.80;;
52642;SDS011;38531;53.296;6.614;2023-04-15T12:44:26;9.75;;;0.80;;
52642;SDS011;38531;53.296;6.614;2023-04-15T12:46:56;4.90;;;0.50;;
52642;SDS011;38531;53.296;6.614;2023-04-15T12:49:22;8.77;;;0.80;;
52642;SDS011;38531;53.296;6.614;2023-04-15T12:51:49;7.53;;;0.80;;
52642;SDS011;38531;53.296;6.614;2023-04-15T12:54:17;1.55;;;0.60;;
52642;SDS011;38531;53.296;6.614;2023-04-15T12:56:43;2.75;;;0.60;;
52642;SDS011;38531;53.296;6.614;2023-04-15T12:59:10;4.10;;;0.60;;
52642;SDS011;38531;53.296;6.614;2023-04-15T13:01:37;3.67;;;0.80;;
52642;SDS011;38531;53.296;6.614;2023-04-15T13:04:05;2.58;;;0.60;;
52642;SDS011;38531;53.296;6.614;2023-04-15T13:06:31;4.95;;;0.70;;
52642;SDS011;38531;53.296;6.614;2023-04-15T13:09:00;4.75;;;0.60;;
52642;SDS011;38531;53.296;6.614;2023-04-15T13:11:27;3.97;;;0.60;;
52642;SDS011;38531;53.296;6.614;2023-04-15T13:13:58;3.58;;;1.02;;
52642;SDS011;38531;53.296;6.614;2023-04-15T13:16:26;2.42;;;0.50;;
52642;SDS011;38531;53.296;6.614;2023-04-15T13:18:52;3.60;;;0.68;;
52642;SDS011;38531;53.296;6.614;2023-04-15T13:21:18;6.15;;;0.82;;
52642;SDS011;38531;53.296;6.614;2023-04-15T13:23:43;5.82;;;0.80;;
52642;SDS011;38531;53.296;6.614;2023-04-15T13:26:12;6.93;;;0.80;;
52642;SDS011;38531;53.296;6.614;2023-04-15T13:28:38;9.20;;;1.63;;
52642;SDS011;38531;53.296;6.614;2023-04-15T13:31:04;5.07;;;0.80;;
52642;SDS011;38531;53.296;6.614;2023-04-15T13:33:33;5.43;;;0.70;;
52642;SDS011;38531;53.296;6.614;2023-04-15T13:35:59;5.88;;;0.60;;
52642;SDS011;38531;53.296;6.614;2023-04-15T13:38:25;2.13;;;0.73;;
52642;SDS011;38531;53.296;6.614;2023-04-15T13:40:50;3.85;;;0.57;;
52642;SDS011;38531;53.296;6.614;2023-04-15T13:43:16;5.63;;;1.38;;
52642;SDS011;38531;53.296;6.614;2023-04-15T13:45:45;3.60;;;0.77;;
52642;SDS011;38531;53.296;6.614;2023-04-15T13:48:11;3.63;;;0.85;;
52642;SDS011;38531;53.296;6.614;2023-04-15T13:50:37;3.20;;;0.73;;
52642;SDS011;38531;53.296;6.614;2023-04-15T13:53:03;2.33;;;0.68;;
52642;SDS011;38531;53.296;6.614;2023-04-15T13:55:29;4.18;;;0.73;;
52642;SDS011;38531;53.296;6.614;2023-04-15T13:57:55;8.45;;;1.35;;
52642;SDS011;38531;53.296;6.614;2023-04-15T14:00:21;4.70;;;0.73;;
52642;SDS011;38531;53.296;6.614;2023-04-15T14:02:47;5.97;;;0.90;;
52642;SDS011;38531;53.296;6.614;2023-04-15T14:05:13;5.03;;;0.77;;
52642;SDS011;38531;53.296;6.614;2023-04-15T14:07:39;6.38;;;0.75;;
52642;SDS011;38531;53.296;6.614;2023-04-15T14:10:05;5.80;;;0.70;;
52642;SDS011;38531;53.296;6.614;2023-04-15T14:12:31;6.32;;;0.98;;
52642;SDS011;38531;53.296;6.614;2023-04-15T14:14:57;7.75;;;1.50;;
52642;SDS011;38531;53.296;6.614;2023-04-15T14:17:23;5.00;;;0.80;;
52642;SDS011;38531;53.296;6.614;2023-04-15T14:19:49;7.43;;;0.88;;
52642;SDS011;38531;53.296;6.614;2023-04-15T14:22:14;3.10;;;0.70;;
52642;SDS011;38531;53.296;6.614;2023-04-15T14:24:42;4.88;;;0.95;;
52642;SDS011;38531;53.296;6.614;2023-04-15T14:27:08;4.18;;;0.90;;
52642;SDS011;38531;53.296;6.614;2023-04-15T14:29:36;4.10;;;0.70;;
52642;SDS011;38531;53.296;6.614;2023-04-15T14:32:02;5.90;;;0.93;;
52642;SDS011;38531;53.296;6.614;2023-04-15T14:34:28;5.63;;;1.05;;
52642;SDS011;38531;53.296;6.614;2023-04-15T14:36:54;6.43;;;1.00;;
52642;SDS011;38531;53.296;6.614;2023-04-15T14:39:20;7.45;;;1.13;;
52642;SDS011;38531;53.296;6.614;2023-04-15T14:41:46;7.55;;;0.80;;
52642;SDS011;38531;53.296;6.614;2023-04-15T14:44:12;7.97;;;1.55;;
52642;SDS011;38531;53.296;6.614;2023-04-15T14:46:38;7.10;;;1.00;;
52642;SDS011;38531;53.296;6.614;2023-04-15T14:49:05;3.42;;;0.70;;
52642;SDS011;38531;53.296;6.614;2023-04-15T14:51:31;4.35;;;1.20;;
52642;SDS011;38531;53.296;6.614;2023-04-15T14:53:57;4.30;;;0.73;;
52642;SDS011;38531;53.296;6.614;2023-04-15T14:56:22;7.07;;;1.00;;
52642;SDS011;38531;53.296;6.614;2023-04-15T14:58:48;5.53;;;1.00;;
52642;SDS011;38531;53.296;6.614;2023-04-15T15:01:17;10.50;;;1.20;;